createdAt,value
2017-12-03T00:01:48.903Z,25.77
2017-12-03T00:04:17.474Z,30.50
2017-12-03T00:06:46.040Z,23.07
2017-12-03T00:09:14.913Z,32.67
2017-12-03T00:11:43.752Z,22.90
2017-12-03T00:14:12.572Z,23.50
2017-12-03T00:16:41.569Z,29.00
2017-12-03T00:19:10.384Z,31.70
2017-12-03T00:21:39.185Z,30.97
2017-12-03T00:24:07.968Z,25.60
2017-12-03T00:26:37.149Z,33.47
2017-12-03T00:29:06.628Z,33.40
2017-12-03T00:31:35.519Z,22.73
2017-12-03T00:34:04.752Z,32.63
2017-12-03T00:36:33.784Z,26.33
2017-12-03T00:39:02.716Z,25.50
2017-12-03T00:41:31.685Z,26.93
2017-12-03T00:44:00.330Z,23.73
2017-12-03T00:46:29.419Z,28.17
2017-12-03T00:48:58.399Z,31.00
2017-12-03T00:51:27.971Z,30.30
2017-12-03T00:53:56.593Z,33.43
2017-12-03T00:56:25.918Z,28.13
2017-12-03T00:58:55.069Z,23.93
2017-12-03T01:01:24.509Z,27.80
2017-12-03T01:03:53.302Z,28.00
2017-12-03T01:06:22.183Z,29.90
2017-12-03T01:08:52.305Z,29.17
2017-12-03T01:11:21.747Z,35.87
2017-12-03T01:13:50.892Z,26.03
2017-12-03T01:16:20.499Z,23.27
2017-12-03T01:18:49.706Z,31.13
2017-12-03T01:21:19.310Z,29.50
2017-12-03T01:23:47.909Z,29.27
2017-12-03T01:26:16.155Z,31.23
2017-12-03T01:28:44.397Z,29.30
2017-12-03T01:31:12.749Z,25.93
2017-12-03T01:33:41.012Z,31.43
2017-12-03T01:36:09.260Z,36.10
2017-12-03T01:38:37.528Z,30.30
2017-12-03T01:41:05.792Z,27.57
2017-12-03T01:43:34.036Z,31.03
2017-12-03T01:46:02.308Z,27.20
2017-12-03T01:48:30.572Z,22.10
2017-12-03T01:50:58.812Z,32.70
2017-12-03T01:53:27.093Z,32.90
2017-12-03T01:55:55.370Z,31.77
2017-12-03T01:58:23.621Z,27.27
2017-12-03T02:00:51.975Z,30.93
2017-12-03T02:03:21.120Z,24.20
2017-12-03T02:05:49.412Z,26.63
2017-12-03T02:08:18.079Z,36.67
2017-12-03T02:10:46.328Z,33.30
2017-12-03T02:13:14.827Z,28.80
2017-12-03T02:15:43.096Z,21.43
2017-12-03T02:18:11.346Z,33.13
2017-12-03T02:20:39.589Z,22.10
2017-12-03T02:23:08.291Z,25.40
2017-12-03T02:25:36.537Z,23.60
2017-12-03T02:28:05.180Z,27.03
2017-12-03T02:30:33.469Z,28.57
2017-12-03T02:33:01.715Z,22.70
2017-12-03T02:35:29.947Z,36.40
2017-12-03T02:37:58.595Z,28.17
2017-12-03T02:40:26.841Z,32.10
2017-12-03T02:42:55.075Z,30.33
2017-12-03T02:45:23.344Z,25.70
2017-12-03T02:47:51.580Z,31.20
2017-12-03T02:50:19.828Z,31.50
2017-12-03T02:52:48.190Z,31.20
2017-12-03T02:55:16.428Z,32.80
2017-12-03T02:57:44.680Z,37.93
2017-12-03T03:00:12.947Z,32.30
2017-12-03T03:05:15.785Z,28.63
2017-12-03T03:07:44.027Z,26.17
2017-12-03T03:10:12.268Z,34.10
2017-12-03T03:12:40.943Z,26.77
2017-12-03T03:15:09.189Z,24.43
2017-12-03T03:17:37.424Z,25.23
2017-12-03T03:20:05.701Z,38.70
2017-12-03T03:22:34.018Z,40.60
2017-12-03T03:25:02.270Z,37.20
2017-12-03T03:27:30.527Z,45.00
2017-12-03T03:29:58.778Z,41.53
2017-12-03T03:32:27.347Z,40.90
2017-12-03T03:34:55.621Z,44.50
2017-12-03T03:37:23.971Z,29.97
2017-12-03T03:39:53.489Z,34.70
2017-12-03T03:42:22.696Z,30.20
2017-12-03T03:44:50.948Z,36.50
2017-12-03T03:47:19.188Z,31.40
2017-12-03T03:49:47.838Z,29.83
2017-12-03T03:52:16.859Z,32.70
2017-12-03T03:54:45.501Z,32.90
2017-12-03T03:57:14.096Z,32.20
2017-12-03T03:59:42.352Z,32.70
2017-12-03T04:02:10.619Z,38.27
2017-12-03T04:04:38.895Z,36.23
2017-12-03T04:07:07.127Z,33.30
2017-12-03T04:09:35.786Z,32.63
2017-12-03T04:12:04.093Z,44.47
2017-12-03T04:14:32.337Z,32.97
2017-12-03T04:17:00.582Z,35.47
2017-12-03T04:19:28.858Z,35.83
2017-12-03T04:21:57.113Z,32.83
2017-12-03T04:24:25.363Z,36.37
2017-12-03T04:26:53.621Z,32.80
2017-12-03T04:29:21.868Z,39.17
2017-12-03T04:31:50.115Z,37.67
2017-12-03T04:34:18.396Z,32.47
2017-12-03T04:36:46.650Z,37.60
2017-12-03T04:39:15.113Z,44.13
2017-12-03T04:41:43.679Z,46.40
2017-12-03T04:44:11.926Z,32.10
2017-12-03T04:46:40.185Z,37.53
2017-12-03T04:49:08.535Z,34.83
2017-12-03T04:51:36.765Z,47.83
2017-12-03T04:54:05.435Z,43.57
2017-12-03T04:56:33.685Z,47.70
2017-12-03T04:59:01.929Z,34.03
2017-12-03T05:01:30.204Z,44.17
2017-12-03T05:03:58.462Z,40.77
2017-12-03T05:06:26.706Z,36.13
2017-12-03T05:08:55.585Z,35.03
2017-12-03T05:11:23.858Z,40.50
2017-12-03T05:13:52.105Z,37.70
2017-12-03T05:16:20.372Z,42.30
2017-12-03T05:18:48.622Z,38.47
2017-12-03T05:21:16.864Z,30.87
2017-12-03T05:23:45.116Z,38.80
2017-12-03T05:26:14.083Z,39.03
2017-12-03T05:28:42.330Z,33.00
2017-12-03T05:31:11.493Z,29.83
2017-12-03T05:33:40.547Z,36.83
2017-12-03T05:36:08.861Z,38.20
2017-12-03T05:38:37.497Z,38.80
2017-12-03T05:41:05.741Z,38.77
2017-12-03T05:43:34.015Z,34.10
2017-12-03T05:46:02.261Z,37.33
2017-12-03T05:48:30.893Z,35.27
2017-12-03T05:50:59.169Z,37.70
2017-12-03T05:53:27.684Z,35.07
2017-12-03T05:55:55.927Z,34.07
2017-12-03T05:58:24.215Z,32.90
2017-12-03T06:00:52.473Z,35.90
2017-12-03T06:03:20.704Z,36.80
2017-12-03T06:05:49.355Z,32.60
2017-12-03T06:08:17.849Z,32.83
2017-12-03T06:10:46.124Z,34.20
2017-12-03T06:13:14.366Z,37.60
2017-12-03T06:15:42.607Z,42.13
2017-12-03T06:18:11.252Z,37.67
2017-12-03T06:20:39.495Z,33.87
2017-12-03T06:23:07.777Z,34.97
2017-12-03T06:25:36.063Z,33.83
2017-12-03T06:28:04.308Z,38.43
2017-12-03T06:30:32.850Z,30.17
2017-12-03T06:33:01.089Z,38.43
2017-12-03T06:35:29.330Z,39.00
2017-12-03T06:37:57.603Z,47.97
2017-12-03T06:40:26.955Z,38.83
2017-12-03T06:42:56.064Z,39.43
2017-12-03T06:45:24.425Z,37.33
2017-12-03T06:47:53.165Z,41.07
2017-12-03T06:50:21.805Z,38.93
2017-12-03T06:52:50.072Z,31.93
2017-12-03T06:55:18.316Z,33.60
2017-12-03T06:57:46.556Z,34.47
2017-12-03T07:00:14.824Z,38.00
2017-12-03T07:02:43.088Z,39.23
2017-12-03T07:05:11.315Z,39.83
2017-12-03T07:07:39.565Z,37.80
2017-12-03T07:10:08.199Z,40.60
2017-12-03T07:12:36.768Z,42.70
2017-12-03T07:15:05.298Z,38.30
2017-12-03T07:17:33.544Z,33.93
2017-12-03T07:20:01.790Z,33.20
2017-12-03T07:22:30.061Z,33.63
2017-12-03T07:24:58.684Z,32.93
2017-12-03T07:27:26.991Z,35.40
2017-12-03T07:29:55.239Z,35.03
2017-12-03T07:32:23.482Z,37.73
2017-12-03T07:34:51.769Z,35.73
2017-12-03T07:37:20.007Z,35.90
2017-12-03T07:39:48.976Z,29.20
2017-12-03T07:42:17.857Z,32.43
2017-12-03T07:44:50.204Z,29.57
2017-12-03T07:47:19.849Z,35.63
2017-12-03T07:49:50.174Z,35.23
2017-12-03T07:52:22.531Z,37.10
2017-12-03T07:54:51.335Z,29.00
2017-12-03T07:57:19.643Z,29.80
2017-12-03T07:59:48.092Z,30.03
2017-12-03T08:02:16.401Z,28.60
2017-12-03T08:04:45.056Z,28.30
2017-12-03T08:07:13.303Z,26.70
2017-12-03T08:09:41.553Z,30.77
2017-12-03T08:12:09.829Z,28.20
2017-12-03T08:14:38.071Z,27.90
2017-12-03T08:17:06.644Z,27.60
2017-12-03T08:19:39.874Z,31.53
2017-12-03T08:22:09.757Z,30.47
2017-12-03T08:24:38.932Z,28.00
2017-12-03T08:27:10.940Z,30.10
2017-12-03T08:29:40.709Z,30.53
2017-12-03T08:32:10.815Z,27.73
2017-12-03T08:34:43.388Z,27.50
2017-12-03T08:37:12.134Z,29.70
2017-12-03T08:39:40.845Z,24.10
2017-12-03T08:42:09.131Z,23.40
2017-12-03T08:44:37.399Z,21.27
2017-12-03T08:47:05.645Z,29.70
2017-12-03T08:49:34.293Z,24.63
2017-12-03T08:52:02.552Z,23.83
2017-12-03T08:54:30.796Z,23.10
2017-12-03T08:56:59.050Z,24.73
2017-12-03T08:59:27.696Z,23.17
2017-12-03T09:01:55.979Z,17.60
2017-12-03T09:04:24.254Z,26.93
2017-12-03T09:06:52.737Z,20.80
2017-12-03T09:09:20.984Z,24.30
2017-12-03T09:11:49.260Z,22.00
2017-12-03T09:14:17.514Z,22.90
2017-12-03T09:16:45.748Z,24.50
2017-12-03T09:19:14.008Z,19.30
2017-12-03T09:21:42.269Z,20.30
2017-12-03T09:24:10.884Z,23.70
2017-12-03T09:26:39.120Z,17.33
2017-12-03T09:29:07.405Z,23.10
2017-12-03T09:31:35.660Z,20.50
2017-12-03T09:34:03.912Z,19.20
2017-12-03T09:36:32.569Z,20.83
2017-12-03T09:39:00.825Z,21.10
2017-12-03T09:41:29.144Z,20.07
2017-12-03T09:43:57.388Z,16.50
2017-12-03T09:46:26.079Z,16.30
2017-12-03T09:48:54.853Z,17.80
2017-12-03T09:51:23.244Z,15.63
2017-12-03T09:53:51.828Z,13.67
2017-12-03T09:56:20.121Z,17.80
2017-12-03T09:58:49.119Z,19.57
2017-12-03T10:01:17.449Z,17.70
2017-12-03T10:03:45.784Z,16.67
2017-12-03T10:06:14.060Z,11.63
2017-12-03T10:08:42.735Z,12.67
2017-12-03T10:11:11.385Z,18.93
2017-12-03T10:13:39.631Z,12.67
2017-12-03T10:16:08.008Z,17.67
2017-12-03T10:18:36.248Z,18.83
2017-12-03T10:21:04.526Z,18.00
2017-12-03T10:23:33.215Z,12.47
2017-12-03T10:26:01.844Z,14.70
2017-12-03T10:28:30.093Z,17.73
2017-12-03T10:30:58.356Z,18.63
2017-12-03T10:33:26.997Z,16.97
2017-12-03T10:35:55.234Z,16.97
2017-12-03T10:38:23.654Z,14.87
2017-12-03T10:40:51.888Z,16.30
2017-12-03T10:43:20.143Z,15.53
2017-12-03T10:45:48.415Z,17.40
2017-12-03T10:48:17.072Z,15.60
2017-12-03T10:50:45.341Z,17.07
2017-12-03T10:53:13.618Z,15.47
2017-12-03T10:55:41.903Z,19.77
2017-12-03T10:58:10.488Z,19.43
2017-12-03T11:00:38.743Z,19.20
2017-12-03T11:03:07.840Z,19.80
2017-12-03T11:05:36.093Z,19.63
2017-12-03T11:08:04.394Z,17.63
2017-12-03T11:10:32.660Z,16.57
2017-12-03T11:13:00.884Z,20.63
2017-12-03T11:15:29.529Z,20.37
2017-12-03T11:17:57.779Z,12.17
2017-12-03T11:20:26.029Z,19.27
2017-12-03T11:22:54.315Z,17.47
2017-12-03T11:25:22.569Z,20.33
2017-12-03T11:27:50.917Z,17.83
2017-12-03T11:30:19.202Z,19.00
2017-12-03T11:32:47.681Z,19.00
2017-12-03T11:35:15.948Z,19.23
2017-12-03T11:37:44.540Z,18.07
2017-12-03T11:40:12.776Z,20.07
2017-12-03T11:42:41.011Z,17.70
2017-12-03T11:45:09.645Z,15.27
2017-12-03T11:47:37.883Z,13.53
2017-12-03T11:50:06.523Z,16.97
2017-12-03T11:52:34.762Z,18.13
2017-12-03T11:55:03.011Z,15.63
2017-12-03T11:57:31.658Z,17.30
2017-12-03T11:59:59.966Z,17.10
2017-12-03T12:02:28.199Z,15.67
2017-12-03T12:04:56.457Z,16.60
2017-12-03T12:07:24.712Z,15.87
2017-12-03T12:09:53.363Z,15.10
2017-12-03T12:12:21.600Z,14.00
2017-12-03T12:14:49.843Z,12.17
2017-12-03T12:17:18.524Z,11.17
2017-12-03T12:19:47.155Z,14.73
2017-12-03T12:22:15.400Z,17.50
2017-12-03T12:24:43.659Z,16.77
2017-12-03T12:27:12.296Z,14.40
2017-12-03T12:29:40.528Z,18.40
2017-12-03T12:32:08.788Z,11.57
2017-12-03T12:34:37.652Z,14.93
2017-12-03T12:37:05.896Z,15.60
2017-12-03T12:39:34.140Z,12.70
2017-12-03T12:42:02.788Z,17.20
2017-12-03T12:44:31.928Z,15.33
2017-12-03T12:47:00.365Z,17.63
2017-12-03T12:49:28.632Z,15.20
2017-12-03T12:51:56.864Z,17.10
2017-12-03T12:54:25.138Z,15.60
2017-12-03T12:56:53.359Z,17.73
2017-12-03T12:59:21.604Z,17.97
2017-12-03T13:01:49.849Z,17.43
2017-12-03T13:04:19.127Z,19.63
2017-12-03T13:06:47.616Z,18.47
2017-12-03T13:09:16.710Z,16.03
2017-12-03T13:11:44.945Z,16.83
2017-12-03T13:14:13.713Z,18.27
2017-12-03T13:16:41.952Z,16.47
2017-12-03T13:19:10.633Z,15.43
2017-12-03T13:21:38.936Z,16.50
2017-12-03T13:24:07.171Z,12.17
2017-12-03T13:26:35.436Z,11.40
2017-12-03T13:29:03.710Z,12.57
2017-12-03T13:31:32.195Z,13.83
2017-12-03T13:34:00.810Z,15.87
2017-12-03T13:36:29.069Z,16.00
2017-12-03T13:38:57.430Z,13.60
2017-12-03T13:41:25.648Z,14.03
2017-12-03T13:43:53.927Z,13.00
2017-12-03T13:46:23.016Z,16.27
2017-12-03T13:48:51.365Z,14.70
2017-12-03T13:51:19.673Z,12.53
2017-12-03T13:53:47.902Z,11.47
2017-12-03T13:56:16.169Z,13.73
2017-12-03T13:58:44.511Z,14.90
2017-12-03T14:01:12.771Z,11.17
2017-12-03T14:03:41.021Z,14.47
2017-12-03T14:06:09.264Z,14.10
2017-12-03T14:08:37.516Z,13.40
2017-12-03T14:11:05.757Z,12.60
2017-12-03T14:13:34.007Z,12.00
2017-12-03T14:16:02.299Z,15.13
2017-12-03T14:18:30.555Z,12.67
2017-12-03T14:20:58.789Z,13.30
2017-12-03T14:23:27.062Z,12.13
2017-12-03T14:25:55.310Z,16.17
2017-12-03T14:28:23.541Z,14.20
2017-12-03T14:30:51.816Z,9.93
2017-12-03T14:33:20.127Z,10.47
2017-12-03T14:35:48.494Z,13.00
2017-12-03T14:38:17.026Z,14.13
2017-12-03T14:40:45.479Z,11.57
2017-12-03T14:43:14.124Z,12.10
2017-12-03T14:45:42.400Z,11.50
2017-12-03T14:48:10.662Z,10.07
2017-12-03T14:50:38.904Z,14.03
2017-12-03T14:53:07.198Z,15.23
2017-12-03T14:55:35.647Z,15.80
2017-12-03T14:58:04.031Z,16.07
2017-12-03T15:00:32.408Z,12.60
2017-12-03T15:03:00.771Z,10.57
2017-12-03T15:05:30.192Z,9.30
2017-12-03T15:07:58.795Z,10.70
2017-12-03T15:10:27.200Z,12.97
2017-12-03T15:12:55.497Z,13.23
2017-12-03T15:15:23.817Z,15.00
2017-12-03T15:17:52.087Z,14.37
2017-12-03T15:20:20.724Z,15.17
2017-12-03T15:22:48.989Z,15.47
2017-12-03T15:25:17.455Z,11.77
2017-12-03T15:27:46.523Z,14.77
2017-12-03T15:30:15.775Z,15.07
2017-12-03T15:32:44.716Z,10.97
2017-12-03T15:35:12.971Z,13.30
2017-12-03T15:37:41.504Z,10.23
2017-12-03T15:40:11.080Z,13.20
2017-12-03T15:42:39.782Z,13.50
2017-12-03T15:45:08.432Z,11.30
2017-12-03T15:47:36.703Z,9.80
2017-12-03T15:50:05.153Z,9.07
2017-12-03T15:52:33.471Z,12.90
2017-12-03T15:55:01.838Z,13.77
2017-12-03T15:57:30.194Z,10.80
2017-12-03T15:59:58.804Z,15.90
2017-12-03T16:02:27.485Z,10.23
2017-12-03T16:04:55.757Z,11.00
2017-12-03T16:07:23.996Z,9.53
2017-12-03T16:09:52.513Z,12.30
2017-12-03T16:12:20.809Z,10.93
2017-12-03T16:14:49.083Z,11.57
2017-12-03T16:17:17.343Z,11.67
2017-12-03T16:19:45.615Z,15.50
2017-12-03T16:22:13.882Z,10.43
2017-12-03T16:24:42.174Z,10.40
2017-12-03T16:27:10.442Z,12.80
2017-12-03T16:29:38.700Z,12.27
2017-12-03T16:32:06.990Z,11.13
2017-12-03T16:34:35.251Z,13.50
2017-12-03T16:37:03.489Z,13.53
2017-12-03T16:39:32.234Z,13.00
2017-12-03T16:42:00.477Z,14.40
2017-12-03T16:44:28.724Z,13.67
2017-12-03T16:46:57.399Z,14.10
2017-12-03T16:49:25.667Z,13.03
2017-12-03T16:51:54.890Z,11.27
2017-12-03T16:54:23.217Z,13.53
2017-12-03T16:56:51.500Z,17.60
2017-12-03T16:59:19.767Z,14.37
2017-12-03T17:01:48.100Z,10.73
2017-12-03T17:04:16.752Z,9.83
2017-12-03T17:06:45.081Z,12.07
2017-12-03T17:09:13.362Z,10.00
2017-12-03T17:11:41.633Z,10.47
2017-12-03T17:14:09.901Z,13.70
2017-12-03T17:16:38.225Z,16.50
2017-12-03T17:19:06.503Z,12.73
2017-12-03T17:21:34.782Z,13.50
2017-12-03T17:24:03.037Z,10.67
2017-12-03T17:26:31.320Z,12.23
2017-12-03T17:28:59.580Z,10.37
2017-12-03T17:31:27.849Z,13.50
2017-12-03T17:33:56.129Z,12.27
2017-12-03T17:36:24.421Z,10.67
2017-12-03T17:38:52.672Z,14.10
2017-12-03T17:41:20.931Z,12.70
2017-12-03T17:43:51.248Z,10.70
2017-12-03T17:46:19.514Z,10.77
2017-12-03T17:48:47.825Z,11.57
2017-12-03T17:51:16.871Z,10.47
2017-12-03T17:53:45.553Z,10.30
2017-12-03T17:56:13.953Z,12.47
2017-12-03T17:58:42.286Z,13.10
2017-12-03T18:01:10.545Z,13.47
2017-12-03T18:03:38.816Z,13.23
2017-12-03T18:06:07.066Z,10.97
2017-12-03T18:08:35.325Z,10.57
2017-12-03T18:11:03.989Z,10.50
2017-12-03T18:13:32.225Z,10.73
2017-12-03T18:16:00.477Z,14.30
2017-12-03T18:18:28.748Z,11.67
2017-12-03T18:20:56.993Z,11.13
2017-12-03T18:23:25.225Z,12.67
2017-12-03T18:25:53.589Z,9.50
2017-12-03T18:28:22.234Z,14.30
2017-12-03T18:30:54.587Z,11.40
2017-12-03T18:33:22.852Z,10.93
2017-12-03T18:35:51.121Z,12.97
2017-12-03T18:38:19.400Z,12.10
2017-12-03T18:40:47.670Z,12.17
2017-12-03T18:43:15.912Z,14.37
2017-12-03T18:45:44.213Z,12.23
2017-12-03T18:48:12.456Z,16.07
2017-12-03T18:50:41.119Z,15.97
2017-12-03T18:53:09.391Z,19.70
2017-12-03T18:55:37.641Z,15.50
2017-12-03T18:58:05.917Z,20.07
2017-12-03T19:00:34.144Z,16.60
2017-12-03T19:03:02.787Z,15.27
2017-12-03T19:05:31.085Z,17.00
2017-12-03T19:07:59.323Z,14.40
2017-12-03T19:10:27.598Z,14.57
2017-12-03T19:12:55.841Z,12.33
2017-12-03T19:15:24.091Z,10.90
2017-12-03T19:17:52.443Z,16.90
2017-12-03T19:20:20.700Z,15.40
2017-12-03T19:22:48.957Z,10.37
2017-12-03T19:25:17.198Z,13.17
2017-12-03T19:27:45.448Z,13.00
2017-12-03T19:30:13.936Z,13.97
2017-12-03T19:32:42.200Z,10.03
2017-12-03T19:35:10.470Z,11.17
2017-12-03T19:37:38.705Z,11.50
2017-12-03T19:40:07.040Z,11.70
2017-12-03T19:42:35.315Z,13.20
2017-12-03T19:45:03.560Z,12.60
2017-12-03T19:47:31.816Z,16.17
2017-12-03T19:50:00.118Z,15.07
2017-12-03T19:52:28.444Z,13.67
2017-12-03T19:54:57.088Z,16.00
2017-12-03T19:57:25.364Z,23.50
2017-12-03T19:59:53.689Z,14.20
2017-12-03T20:02:21.970Z,18.77
2017-12-03T20:04:50.629Z,12.80
2017-12-03T20:07:19.366Z,21.70
2017-12-03T20:09:47.663Z,18.33
2017-12-03T20:12:16.182Z,15.20
2017-12-03T20:14:44.429Z,18.37
2017-12-03T20:17:12.684Z,19.93
2017-12-03T20:19:40.976Z,17.27
2017-12-03T20:22:09.288Z,18.83
2017-12-03T20:24:37.514Z,21.23
2017-12-03T20:27:06.031Z,18.77
2017-12-03T20:29:34.320Z,21.03
2017-12-03T20:32:02.684Z,20.73
2017-12-03T20:34:31.012Z,16.13
2017-12-03T20:36:59.268Z,15.93
2017-12-03T20:39:27.911Z,15.33
2017-12-03T20:41:56.465Z,19.57
2017-12-03T20:44:24.728Z,23.23
2017-12-03T20:46:53.267Z,18.83
2017-12-03T20:49:22.152Z,22.20
2017-12-03T20:51:51.139Z,21.50
2017-12-03T20:54:19.401Z,24.57
2017-12-03T20:56:47.656Z,21.03
2017-12-03T20:59:15.893Z,27.00
2017-12-03T21:01:44.694Z,21.07
2017-12-03T21:04:13.331Z,23.00
2017-12-03T21:06:42.327Z,24.07
2017-12-03T21:09:10.593Z,25.57
2017-12-03T21:11:38.833Z,20.80
2017-12-03T21:14:07.661Z,20.07
2017-12-03T21:16:35.916Z,24.13
2017-12-03T21:19:04.169Z,26.00
2017-12-03T21:21:32.412Z,17.10
2017-12-03T21:24:00.718Z,25.40
2017-12-03T21:26:28.975Z,20.90
2017-12-03T21:28:57.616Z,26.07
2017-12-03T21:31:25.883Z,21.70
2017-12-03T21:33:54.125Z,21.83
2017-12-03T21:36:22.763Z,15.17
2017-12-03T21:38:51.583Z,21.33
2017-12-03T21:41:19.819Z,18.77
2017-12-03T21:43:48.083Z,19.70
2017-12-03T21:46:16.371Z,13.10
2017-12-03T21:48:44.618Z,20.60
2017-12-03T21:51:12.873Z,16.37
2017-12-03T21:53:41.549Z,19.03
2017-12-03T21:56:09.852Z,18.50
2017-12-03T21:58:38.098Z,19.80
2017-12-03T22:01:06.385Z,18.27
2017-12-03T22:03:35.044Z,20.63
2017-12-03T22:06:03.319Z,27.57
2017-12-03T22:08:31.584Z,22.67
2017-12-03T22:10:59.830Z,18.07
2017-12-03T22:13:28.100Z,19.40
2017-12-03T22:15:56.346Z,19.10
2017-12-03T22:18:24.988Z,17.77
2017-12-03T22:20:53.264Z,15.77
2017-12-03T22:23:21.760Z,19.43
2017-12-03T22:25:50.008Z,18.40
2017-12-03T22:28:18.291Z,19.40
2017-12-03T22:30:46.535Z,19.20
2017-12-03T22:33:14.773Z,16.63
2017-12-03T22:35:43.476Z,17.10
2017-12-03T22:38:12.104Z,16.07
2017-12-03T22:40:40.347Z,17.03
2017-12-03T22:43:08.631Z,16.80
2017-12-03T22:45:36.870Z,18.13
2017-12-03T22:48:05.343Z,17.23
2017-12-03T22:50:33.608Z,16.57
2017-12-03T22:53:01.861Z,16.50
2017-12-03T22:55:30.110Z,15.40
2017-12-03T22:57:58.388Z,18.17
2017-12-03T23:00:33.424Z,15.70
2017-12-03T23:03:01.708Z,18.57
2017-12-03T23:05:30.234Z,17.37
2017-12-03T23:07:58.480Z,18.20
2017-12-03T23:10:26.760Z,15.90
2017-12-03T23:12:55.013Z,17.20
2017-12-03T23:15:23.257Z,19.53
2017-12-03T23:17:51.910Z,17.30
2017-12-03T23:20:20.404Z,18.33
2017-12-03T23:22:48.688Z,22.03
2017-12-03T23:25:16.975Z,19.80
2017-12-03T23:27:45.204Z,15.90
2017-12-03T23:30:13.564Z,15.80
2017-12-03T23:32:41.815Z,19.27
2017-12-03T23:35:10.461Z,21.30
2017-12-03T23:37:38.739Z,18.80
2017-12-03T23:40:06.978Z,15.70
2017-12-03T23:42:35.224Z,16.47
2017-12-03T23:45:03.896Z,19.00
2017-12-03T23:47:32.546Z,18.07
2017-12-03T23:50:01.044Z,18.70
2017-12-03T23:52:29.334Z,17.17
2017-12-03T23:54:57.587Z,19.13
2017-12-03T23:57:25.815Z,16.83
2017-12-03T23:59:54.104Z,18.63
